Time,TemperatureF,DewpointF,PressureIn,WindDirection,WindDirectionDegrees,WindSpeedMPH,WindSpeedGustMPH,Humidity,HourlyPrecipIn,Conditions,Clouds,dailyrainin,SoftwareType,DateUTC
2014-11-22 00:00:00,20.9,8.1,30.30,SE,135,1.0,6.0,57,0.00,,,0.00,WeatherCatV1.24B11,2014-11-22 05:00:00,
2014-11-22 00:05:00,20.9,9.2,30.30,South,169,6.0,6.0,60,0.00,,,0.00,WeatherCatV1.24B11,2014-11-22 05:05:00,
2014-11-22 00:10:00,20.8,8.0,30.29,SE,139,1.0,4.0,57,0.00,,,0.00,WeatherCatV1.24B11,2014-11-22 05:10:00,
2014-11-22 00:15:00,20.9,10.0,30.30,NE,51,0.0,5.0,62,0.00,,,0.00,WeatherCatV1.24B11,2014-11-22 05:15:00,
2014-11-22 00:20:00,21.0,9.7,30.30,SSE,159,2.0,3.0,61,0.00,,,0.00,WeatherCatV1.24B11,2014-11-22 05:20:00,
2014-11-22 00:25:00,21.1,7.9,30.30,SSE,159,0.0,2.0,56,0.00,,,0.00,WeatherCatV1.24B11,2014-11-22 05:25:00,
2014-11-22 00:30:00,21.1,8.3,30.30,SSE,157,1.0,2.0,57,0.00,,,0.00,WeatherCatV1.24B11,2014-11-22 05:30:00,
2014-11-22 00:35:00,21.2,9.9,30.29,SSE,157,1.0,2.0,61,0.00,,,0.00,WeatherCatV1.24B11,2014-11-22 05:35:00,
2014-11-22 00:40:00,21.2,8.8,30.30,SSW,202,4.0,6.0,58,0.00,,,0.00,WeatherCatV1.24B11,2014-11-22 05:40:00,
2014-11-22 00:45:00,21.5,7.9,30.30,SE,126,3.0,6.0,55,0.00,,,0.00,WeatherCatV1.24B11,2014-11-22 05:45:00,
2014-11-22 00:50:00,21.5,8.7,30.30,SSE,167,0.0,2.0,57,0.00,,,0.00,WeatherCatV1.24B11,2014-11-22 05:50:00,
2014-11-22 00:55:00,21.5,7.9,30.30,SSE,167,0.0,1.0,55,0.00,,,0.00,WeatherCatV1.24B11,2014-11-22 05:55:00,
2014-11-22 01:00:00,21.5,9.0,30.30,SSE,167,0.0,2.0,58,0.00,,,0.00,WeatherCatV1.24B11,2014-11-22 06:00:00,
2014-11-22 01:05:00,21.3,9.2,30.31,SSE,165,1.0,3.0,59,0.00,,,0.00,WeatherCatV1.24B11,2014-11-22 06:05:00,
2014-11-22 01:10:00,21.2,9.1,30.30,SSW,198,0.0,3.0,59,0.00,,,0.00,WeatherCatV1.24B11,2014-11-22 06:10:00,
2014-11-22 01:15:00,21.1,9.4,30.30,SE,136,0.0,5.0,60,0.00,,,0.00,WeatherCatV1.24B11,2014-11-22 06:15:00,
2014-11-22 01:20:00,21.2,9.1,30.31,SSW,202,0.0,1.0,59,0.00,,,0.00,WeatherCatV1.24B11,2014-11-22 06:20:00,
2014-11-22 01:25:00,21.3,8.9,30.31,SSE,157,1.0,5.0,58,0.00,,,0.00,WeatherCatV1.24B11,2014-11-22 06:25:00,
2014-11-22 01:30:00,21.3,10.0,30.31,SSE,157,0.0,0.0,61,0.00,,,0.00,WeatherCatV1.24B11,2014-11-22 06:30:00,
2014-11-22 01:35:00,21.2,9.9,30.31,NW,304,0.0,4.0,61,0.00,,,0.00,WeatherCatV1.24B11,2014-11-22 06:35:00,
2014-11-22 01:40:00,21.2,9.9,30.31,ESE,103,1.0,2.0,61,0.00,,,0.00,WeatherCatV1.24B11,2014-11-22 06:40:00,
2014-11-22 01:45:00,21.2,9.9,30.32,ESE,102,1.0,3.0,61,0.00,,,0.00,WeatherCatV1.24B11,2014-11-22 06:45:00,
2014-11-22 01:50:00,21.1,9.8,30.32,ESE,102,0.0,1.0,61,0.00,,,0.00,WeatherCatV1.24B11,2014-11-22 06:50:00,
2014-11-22 01:55:00,21.1,9.0,30.32,ESE,103,0.0,1.0,59,0.00,,,0.00,WeatherCatV1.24B11,2014-11-22 06:55:00,
2014-11-22 02:00:00,21.0,10.4,30.32,ESE,102,0.0,3.0,63,0.00,,,0.00,WeatherCatV1.24B11,2014-11-22 07:00:00,
2014-11-22 02:05:00,21.1,9.0,30.32,West,267,2.0,6.0,59,0.00,,,0.00,WeatherCatV1.24B11,2014-11-22 07:05:00,
2014-11-22 02:10:00,21.2,10.2,30.33,West,267,0.0,6.0,62,0.00,,,0.00,WeatherCatV1.24B11,2014-11-22 07:10:00,
2014-11-22 02:15:00,21.1,9.4,30.32,SW,218,2.0,3.0,60,0.00,,,0.00,WeatherCatV1.24B11,2014-11-22 07:15:00,
2014-11-22 02:20:00,21.2,10.2,30.32,SW,219,1.0,2.0,62,0.00,,,0.00,WeatherCatV1.24B11,2014-11-22 07:20:00,
2014-11-22 02:25:00,21.1,9.4,30.32,SSW,194,2.0,9.0,60,0.00,,,0.00,WeatherCatV1.24B11,2014-11-22 07:25:00,
2014-11-22 02:30:00,21.1,10.5,30.33,SSW,193,1.0,1.0,63,0.00,,,0.00,WeatherCatV1.24B11,2014-11-22 07:30:00,
2014-11-22 02:35:00,21.2,9.9,30.32,SSE,162,0.0,4.0,61,0.00,,,0.00,WeatherCatV1.24B11,2014-11-22 07:35:00,
2014-11-22 02:40:00,21.3,9.2,30.32,South,173,2.0,4.0,59,0.00,,,0.00,WeatherCatV1.24B11,2014-11-22 07:40:00,
2014-11-22 02:45:00,21.4,10.4,30.32,SW,221,1.0,5.0,62,0.00,,,0.00,WeatherCatV1.24B11,2014-11-22 07:45:00,
2014-11-22 02:50:00,21.5,9.8,30.31,SSW,209,1.0,5.0,60,0.00,,,0.00,WeatherCatV1.24B11,2014-11-22 07:50:00,
2014-11-22 02:55:00,21.4,10.1,30.31,SSW,203,6.0,9.0,61,0.00,,,0.00,WeatherCatV1.24B11,2014-11-22 07:55:00,
2014-11-22 03:00:00,21.3,9.6,30.32,South,171,0.0,2.0,60,0.00,,,0.00,WeatherCatV1.24B11,2014-11-22 08:00:00,
2014-11-22 03:05:00,21.3,11.1,30.32,SSE,167,1.0,3.0,64,0.00,,,0.00,WeatherCatV1.24B11,2014-11-22 08:05:00,
2014-11-22 03:10:00,21.2,10.2,30.31,South,172,0.0,0.0,62,0.00,,,0.00,WeatherCatV1.24B11,2014-11-22 08:10:00,
2014-11-22 03:15:00,21.2,10.6,30.31,NW,313,0.0,2.0,63,0.00,,,0.00,WeatherCatV1.24B11,2014-11-22 08:15:00,
2014-11-22 03:20:00,21.1,11.2,30.31,NW,313,1.0,3.0,65,0.00,,,0.00,WeatherCatV1.24B11,2014-11-22 08:20:00,
2014-11-22 03:25:00,21.0,10.8,30.31,SW,224,0.0,1.0,64,0.00,,,0.00,WeatherCatV1.24B11,2014-11-22 08:25:00,
2014-11-22 03:30:00,21.0,10.4,30.31,WSW,239,4.0,4.0,63,0.00,,,0.00,WeatherCatV1.24B11,2014-11-22 08:30:00,
2014-11-22 03:35:00,21.2,10.2,30.31,South,179,3.0,9.0,62,0.00,,,0.00,WeatherCatV1.24B11,2014-11-22 08:35:00,
2014-11-22 03:40:00,21.7,9.6,30.31,West,271,7.0,7.0,59,0.00,,,0.00,WeatherCatV1.24B11,2014-11-22 08:40:00,
2014-11-22 03:45:00,22.0,10.3,30.31,SW,221,1.0,6.0,60,0.00,,,0.00,WeatherCatV1.24B11,2014-11-22 08:45:00,
2014-11-22 03:50:00,21.9,9.8,30.30,South,191,3.0,3.0,59,0.00,,,0.00,WeatherCatV1.24B11,2014-11-22 08:50:00,
2014-11-22 03:55:00,21.8,9.7,30.31,SW,229,3.0,6.0,59,0.00,,,0.00,WeatherCatV1.24B11,2014-11-22 08:55:00,
2014-11-22 04:00:00,21.7,9.6,30.31,WSW,238,0.0,2.0,59,0.00,,,0.00,WeatherCatV1.24B11,2014-11-22 09:00:00,
2014-11-22 04:05:00,21.7,9.2,30.30,WSW,238,0.0,2.0,58,0.00,,,0.00,WeatherCatV1.24B11,2014-11-22 09:05:00,